createdAt,value
2022-12-14T00:02:08.685Z,99149.78
2022-12-14T00:04:36.914Z,99156.25
2022-12-14T00:07:04.753Z,99141.97
2022-12-14T00:09:32.735Z,99122.28
2022-12-14T00:12:04.073Z,99123.47
2022-12-14T00:14:31.916Z,99135.41
2022-12-14T00:17:00.106Z,99107.78
2022-12-14T00:19:28.031Z,99126.06
2022-12-14T00:21:56.253Z,99112.13
2022-12-14T00:24:24.472Z,99110.09
2022-12-14T00:26:53.055Z,99103.88
2022-12-14T00:29:21.011Z,99094.19
2022-12-14T00:31:50.402Z,99104.03
2022-12-14T00:34:18.241Z,99088.78
2022-12-14T00:36:48.991Z,99088.66
2022-12-14T00:39:17.244Z,99089.38
2022-12-14T00:41:44.945Z,99090.91
2022-12-14T00:44:12.739Z,99071.34
2022-12-14T00:46:41.254Z,99077.31
2022-12-14T00:49:12.313Z,99071.53
2022-12-14T00:51:43.512Z,99070.69
2022-12-14T00:54:11.394Z,99067.12
2022-12-14T00:56:39.179Z,99066.09
2022-12-14T00:59:10.282Z,99048.81
2022-12-14T01:01:38.156Z,99055.03
2022-12-14T01:04:18.148Z,99051.16
2022-12-14T01:06:48.607Z,99039.72
2022-12-14T01:09:17.500Z,99038.19
2022-12-14T01:11:45.862Z,99035.00
2022-12-14T01:14:16.470Z,99033.94
2022-12-14T01:16:44.345Z,99037.03
2022-12-14T01:19:13.707Z,99028.16
2022-12-14T01:21:42.486Z,99026.88
2022-12-14T01:24:10.598Z,99026.53
2022-12-14T01:26:40.277Z,99019.75
2022-12-14T01:29:08.759Z,99017.25
2022-12-14T01:31:38.348Z,99019.19
2022-12-14T01:34:06.609Z,99025.41
2022-12-14T01:36:35.987Z,99016.59
2022-12-14T01:39:13.902Z,99016.31
2022-12-14T01:41:43.506Z,99012.38
2022-12-14T01:44:11.350Z,99013.22
2022-12-14T01:46:51.041Z,99008.94
2022-12-14T01:49:43.174Z,99005.00
2022-12-14T01:52:21.717Z,99004.72
2022-12-14T01:55:04.013Z,98999.31
2022-12-14T01:57:55.632Z,98998.25
2022-12-14T02:00:24.105Z,98985.41
2022-12-14T02:03:30.850Z,98995.56
2022-12-14T02:06:12.527Z,98989.28
2022-12-14T02:08:43.617Z,98976.72
2022-12-14T02:11:11.713Z,98960.97
2022-12-14T02:13:43.475Z,98962.66
2022-12-14T02:16:11.907Z,98967.22
2022-12-14T02:18:39.743Z,98954.69
2022-12-14T02:21:10.159Z,98957.66
2022-12-14T02:24:03.131Z,98972.56
2022-12-14T02:26:55.865Z,98971.75
2022-12-14T02:29:38.631Z,98955.91
2022-12-14T02:32:36.677Z,98958.38
2022-12-14T02:35:27.070Z,98957.03
2022-12-14T02:38:13.160Z,98949.13
2022-12-14T02:41:05.354Z,98944.81
2022-12-14T02:43:42.181Z,98929.69
2022-12-14T02:46:27.107Z,98936.22
2022-12-14T02:49:08.321Z,98930.28
2022-12-14T02:51:42.629Z,98942.53
2022-12-14T02:54:20.713Z,98934.69
2022-12-14T02:56:56.525Z,98931.75
2022-12-14T02:59:25.006Z,98929.97
2022-12-14T03:01:54.722Z,98934.97
2022-12-14T03:04:25.830Z,98928.63
2022-12-14T03:07:05.448Z,98915.19
2022-12-14T03:09:33.856Z,98896.44
2022-12-14T03:12:11.112Z,98898.72
2022-12-14T03:14:46.776Z,98873.81
2022-12-14T03:17:35.840Z,98863.50
2022-12-14T03:20:11.891Z,98878.53
2022-12-14T03:22:45.432Z,98890.16
2022-12-14T03:25:16.936Z,98886.16
2022-12-14T03:27:53.896Z,98899.06
2022-12-14T03:30:44.315Z,98892.81
2022-12-14T03:33:19.216Z,98906.09
2022-12-14T03:35:57.133Z,98889.47
2022-12-14T03:38:40.031Z,98899.03
2022-12-14T03:41:17.276Z,98869.66
2022-12-14T03:43:49.834Z,98864.87
2022-12-14T03:46:49.742Z,98875.75
2022-12-14T03:49:44.117Z,98882.66
2022-12-14T03:52:27.473Z,98877.69
2022-12-14T03:55:29.663Z,98872.78
2022-12-14T03:58:09.137Z,98871.09
2022-12-14T04:00:58.096Z,98866.84
2022-12-14T04:03:47.620Z,98869.44
2022-12-14T04:06:19.981Z,98869.59
2022-12-14T04:08:48.104Z,98868.50
2022-12-14T04:11:37.537Z,98859.56
2022-12-14T04:14:37.645Z,98858.66
2022-12-14T04:17:31.824Z,98841.00
2022-12-14T04:20:39.515Z,98830.88
2022-12-14T04:23:51.827Z,98862.56
2022-12-14T04:26:28.029Z,98860.50
2022-12-14T04:29:23.735Z,98853.09
2022-12-14T04:32:01.173Z,98859.09
2022-12-14T04:34:31.654Z,98859.81
2022-12-14T04:37:04.307Z,98851.06
2022-12-14T04:39:43.305Z,98848.97
2022-12-14T04:42:14.072Z,98845.00
2022-12-14T04:44:56.135Z,98845.38
2022-12-14T04:47:35.392Z,98841.03
2022-12-14T04:50:30.962Z,98844.03
2022-12-14T04:53:05.744Z,98834.44
2022-12-14T04:55:59.041Z,98842.72
2022-12-14T04:58:30.360Z,98831.78
2022-12-14T05:01:19.675Z,98850.59
2022-12-14T05:04:25.735Z,98855.31
2022-12-14T05:07:18.528Z,98854.81
2022-12-14T05:10:14.500Z,98852.13
2022-12-14T05:12:54.304Z,98856.63
2022-12-14T05:15:28.462Z,98850.59
2022-12-14T05:17:56.953Z,98857.59
2022-12-14T05:20:25.174Z,98855.09
2022-12-14T05:22:53.045Z,98848.31
2022-12-14T05:25:20.868Z,98845.28
2022-12-14T05:27:48.922Z,98846.19
2022-12-14T05:30:17.253Z,98846.19
2022-12-14T05:32:45.083Z,98851.66
2022-12-14T05:35:14.238Z,98845.97
2022-12-14T05:37:43.378Z,98843.00
2022-12-14T05:40:11.919Z,98842.72
2022-12-14T05:42:44.783Z,98847.28
2022-12-14T05:45:15.350Z,98840.34
2022-12-14T05:47:43.457Z,98840.81
2022-12-14T05:50:11.287Z,98847.12
2022-12-14T05:52:38.987Z,98844.91
2022-12-14T05:55:07.580Z,98834.44
2022-12-14T05:57:35.357Z,98836.03
2022-12-14T06:00:04.777Z,98842.78
2022-12-14T06:02:32.474Z,98844.84
2022-12-14T06:05:00.647Z,98839.38
2022-12-14T06:07:28.562Z,98839.38
2022-12-14T06:09:56.421Z,98843.97
2022-12-14T06:12:24.602Z,98832.12
2022-12-14T06:14:55.337Z,98825.59
2022-12-14T06:17:23.185Z,98832.91
2022-12-14T06:19:52.115Z,98821.78
2022-12-14T06:22:19.890Z,98840.56
2022-12-14T06:24:47.682Z,98844.53
2022-12-14T06:27:15.886Z,98845.22
2022-12-14T06:29:43.685Z,98844.09
2022-12-14T06:32:11.468Z,98842.97
2022-12-14T06:34:42.316Z,98858.34
2022-12-14T06:37:14.482Z,98853.94
2022-12-14T06:39:42.602Z,98859.69
2022-12-14T06:42:11.744Z,98852.44
2022-12-14T06:44:39.414Z,98853.03
2022-12-14T06:47:07.620Z,98854.53
2022-12-14T06:49:35.761Z,98861.34
2022-12-14T06:52:03.631Z,98852.91
2022-12-14T06:54:31.841Z,98863.41
2022-12-14T06:56:59.710Z,98861.78
2022-12-14T06:59:27.745Z,98864.75
2022-12-14T07:01:55.922Z,98872.37
2022-12-14T07:04:24.878Z,98871.84
2022-12-14T07:06:52.764Z,98872.59
2022-12-14T07:09:21.067Z,98876.97
2022-12-14T07:11:51.973Z,98882.91
2022-12-14T07:14:21.889Z,98875.97
2022-12-14T07:16:49.798Z,98886.03
2022-12-14T07:19:18.420Z,98883.84
2022-12-14T07:21:46.611Z,98884.34
2022-12-14T07:24:14.988Z,98885.12
2022-12-14T07:26:42.808Z,98889.91
2022-12-14T07:29:12.338Z,98892.12
2022-12-14T07:31:40.397Z,98889.03
2022-12-14T07:34:08.351Z,98888.63
2022-12-14T07:36:39.772Z,98895.06
2022-12-14T07:39:08.334Z,98895.00
2022-12-14T07:41:36.436Z,98899.91
2022-12-14T07:44:04.208Z,98901.19
2022-12-14T07:46:32.677Z,98901.81
2022-12-14T07:49:01.824Z,98899.91
2022-12-14T07:51:38.552Z,98910.13
2022-12-14T07:54:07.424Z,98906.62
2022-12-14T07:56:39.928Z,98910.81
2022-12-14T07:59:08.915Z,98917.44
2022-12-14T08:01:37.755Z,98917.44
2022-12-14T08:04:11.872Z,98919.81
2022-12-14T08:06:40.561Z,98926.37
2022-12-14T08:09:10.404Z,98932.81
2022-12-14T08:11:38.927Z,98927.44
2022-12-14T08:14:12.298Z,98934.19
2022-12-14T08:16:44.280Z,98933.37
2022-12-14T08:19:13.353Z,98936.16
2022-12-14T08:21:42.013Z,98933.44
2022-12-14T08:24:13.771Z,98930.84
2022-12-14T08:26:41.976Z,98942.97
2022-12-14T08:29:12.570Z,98935.34
2022-12-14T08:31:41.154Z,98938.84
2022-12-14T08:34:10.193Z,98940.34
2022-12-14T08:36:38.015Z,98939.78
2022-12-14T08:39:08.752Z,98939.81
2022-12-14T08:41:37.288Z,98941.69
2022-12-14T08:44:05.500Z,98942.72
2022-12-14T08:46:35.346Z,98945.31
2022-12-14T08:49:04.176Z,98952.13
2022-12-14T08:51:32.215Z,98954.72
2022-12-14T08:54:00.128Z,98955.31
2022-12-14T08:56:28.955Z,98959.09
2022-12-14T08:58:57.473Z,98973.25
2022-12-14T09:01:33.945Z,98962.97
2022-12-14T09:04:08.682Z,98982.66
2022-12-14T09:06:38.289Z,98984.59
2022-12-14T09:09:13.622Z,98997.84
2022-12-14T09:11:45.279Z,99002.16
2022-12-14T09:14:13.711Z,99002.94
2022-12-14T09:16:41.858Z,99008.06
2022-12-14T09:19:09.883Z,99012.50
2022-12-14T09:21:38.844Z,99013.41
2022-12-14T09:24:07.240Z,99020.13
2022-12-14T09:26:35.226Z,99027.44
2022-12-14T09:29:03.830Z,99034.66
2022-12-14T09:31:31.610Z,99040.31
2022-12-14T09:33:59.919Z,99044.72
2022-12-14T09:36:29.278Z,99050.97
2022-12-14T09:38:58.165Z,99056.91
2022-12-14T09:41:34.836Z,99062.91
2022-12-14T09:44:25.381Z,99071.19
2022-12-14T09:47:02.026Z,99074.19
2022-12-14T09:49:40.530Z,99080.22
2022-12-14T09:52:16.918Z,99083.50
2022-12-14T09:54:49.794Z,99090.78
2022-12-14T09:57:20.784Z,99098.81
2022-12-14T09:59:48.792Z,99100.94
2022-12-14T10:02:31.881Z,99112.56
2022-12-14T10:05:35.040Z,99117.59
2022-12-14T10:08:36.145Z,99122.75
2022-12-14T10:11:18.610Z,99135.88
2022-12-14T10:14:08.456Z,99137.59
2022-12-14T10:16:54.079Z,99144.00
2022-12-14T10:19:32.509Z,99139.50
2022-12-14T10:22:12.388Z,99156.69
2022-12-14T10:25:13.419Z,99155.78
2022-12-14T10:28:09.938Z,99161.53
2022-12-14T10:30:33.846Z,99163.47
2022-12-14T10:33:13.990Z,99168.50
2022-12-14T10:35:53.180Z,99175.28
2022-12-14T10:38:33.213Z,99178.97
2022-12-14T10:41:16.544Z,99186.53
2022-12-14T10:43:56.925Z,99198.25
2022-12-14T10:46:36.626Z,99202.72
2022-12-14T10:49:20.874Z,99205.56
2022-12-14T10:51:53.004Z,99222.13
2022-12-14T10:54:39.332Z,99235.12
2022-12-14T10:57:07.164Z,99233.41
2022-12-14T10:59:42.417Z,99248.81
2022-12-14T11:02:22.646Z,99244.84
2022-12-14T11:05:11.808Z,99260.19
2022-12-14T11:07:43.669Z,99263.03
2022-12-14T11:10:27.472Z,99270.63
2022-12-14T11:13:27.276Z,99271.69
2022-12-14T11:15:57.764Z,99277.13
2022-12-14T11:18:31.743Z,99289.31
2022-12-14T11:21:03.163Z,99294.38
2022-12-14T11:23:36.112Z,99308.25
2022-12-14T11:26:15.685Z,99316.78
2022-12-14T11:28:51.973Z,99325.78
2022-12-14T11:31:52.726Z,99330.69
2022-12-14T11:34:39.483Z,99333.69
2022-12-14T11:37:30.139Z,99341.22
2022-12-14T11:40:07.291Z,99351.31
2022-12-14T11:42:37.216Z,99362.06
2022-12-14T11:45:26.805Z,99365.53
2022-12-14T11:48:16.196Z,99377.34
2022-12-14T11:50:46.023Z,99388.09
2022-12-14T11:53:16.937Z,99393.41
2022-12-14T11:55:53.473Z,99398.69
2022-12-14T11:58:27.839Z,99401.16
2022-12-14T12:01:00.776Z,99412.47
2022-12-14T12:03:38.477Z,99425.06
2022-12-14T12:06:09.435Z,99435.81
2022-12-14T12:08:42.750Z,99436.84
2022-12-14T12:11:22.591Z,99448.31
2022-12-14T12:13:52.684Z,99458.38
2022-12-14T12:16:23.848Z,99460.44
2022-12-14T12:19:12.981Z,99481.94
2022-12-14T12:21:43.433Z,99471.22
2022-12-14T12:24:19.378Z,99485.47
2022-12-14T12:26:49.986Z,99494.47
2022-12-14T12:29:43.675Z,99510.50
2022-12-14T12:32:27.107Z,99509.75
2022-12-14T12:35:12.022Z,99520.59
2022-12-14T12:37:49.347Z,99522.41
2022-12-14T12:40:34.582Z,99533.63
2022-12-14T12:43:41.176Z,99551.75
2022-12-14T12:46:20.601Z,99558.53
2022-12-14T12:48:59.398Z,99566.75
2022-12-14T12:51:40.578Z,99579.09
2022-12-14T12:54:16.508Z,99586.38
2022-12-14T12:56:58.194Z,99592.69
2022-12-14T12:59:37.800Z,99600.62
2022-12-14T13:02:36.434Z,99604.28
2022-12-14T13:05:45.286Z,99621.22
2022-12-14T13:08:17.092Z,99621.63
2022-12-14T13:11:17.163Z,99620.97
2022-12-14T13:13:37.015Z,99636.72
2022-12-14T13:16:30.071Z,99644.66
2022-12-14T13:19:40.973Z,99657.53
2022-12-14T13:22:07.205Z,99664.31
2022-12-14T13:24:37.131Z,99674.75
2022-12-14T13:28:01.747Z,99692.59
2022-12-14T13:30:44.765Z,99688.16
2022-12-14T13:33:51.905Z,99711.72
2022-12-14T13:36:52.086Z,99708.97
2022-12-14T13:40:04.298Z,99700.97
2022-12-14T13:42:57.854Z,99716.38
2022-12-14T13:45:39.626Z,99729.81
2022-12-14T13:48:28.319Z,99727.56
2022-12-14T13:51:06.710Z,99724.94
2022-12-14T13:53:40.870Z,99750.56
2022-12-14T13:56:32.605Z,99762.19
2022-12-14T13:59:22.641Z,99780.22
2022-12-14T14:01:50.529Z,99783.94
2022-12-14T14:04:27.437Z,99795.41
2022-12-14T14:07:15.242Z,99802.69
2022-12-14T14:09:55.704Z,99804.34
2022-12-14T14:12:59.027Z,99820.31
2022-12-14T14:16:27.934Z,99831.16
2022-12-14T14:19:12.782Z,99833.75
2022-12-14T14:22:06.258Z,99825.47
2022-12-14T14:24:52.782Z,99845.22
2022-12-14T14:27:26.338Z,99854.72
2022-12-14T14:29:55.640Z,99865.25
2022-12-14T14:32:43.164Z,99868.03
2022-12-14T14:35:36.603Z,99871.72
2022-12-14T14:38:28.412Z,99884.16
2022-12-14T14:41:29.315Z,99889.94
2022-12-14T14:44:03.518Z,99895.34
2022-12-14T14:46:41.284Z,99890.72
2022-12-14T14:49:24.900Z,99901.34
2022-12-14T14:51:52.614Z,99911.44
2022-12-14T14:54:56.180Z,99914.09
2022-12-14T14:57:35.404Z,99916.66
2022-12-14T15:00:07.123Z,99920.41
2022-12-14T15:02:43.363Z,99934.94
2022-12-14T15:08:39.618Z,99931.94
2022-12-14T15:11:18.228Z,99940.50
2022-12-14T15:14:26.288Z,99943.41
2022-12-14T15:16:57.540Z,99951.34
2022-12-14T15:19:28.153Z,99951.53
2022-12-14T15:22:07.074Z,99953.72
2022-12-14T15:24:40.724Z,99969.75
2022-12-14T15:27:24.558Z,99973.66
2022-12-14T15:29:55.041Z,99983.78
2022-12-14T15:32:24.662Z,99978.66
2022-12-14T15:35:26.860Z,99983.97
2022-12-14T15:38:07.128Z,99968.06
2022-12-14T15:40:35.916Z,99991.66
2022-12-14T15:43:22.306Z,99986.28
2022-12-14T15:45:56.008Z,99993.97
2022-12-14T15:48:31.308Z,99996.47
2022-12-14T15:51:04.212Z,100002.41
2022-12-14T15:53:55.269Z,100004.16
2022-12-14T15:56:40.297Z,100002.66
2022-12-14T15:59:31.931Z,100012.16
2022-12-14T16:02:18.260Z,100004.22
2022-12-14T16:04:47.363Z,100024.34
2022-12-14T16:07:28.822Z,100018.81
2022-12-14T16:10:04.068Z,100022.06
2022-12-14T16:12:44.657Z,100028.81
2022-12-14T16:15:26.288Z,100029.31
2022-12-14T16:18:01.662Z,100038.47
2022-12-14T16:20:36.267Z,100039.47
2022-12-14T16:23:07.201Z,100045.97
2022-12-14T16:25:37.723Z,100055.66
2022-12-14T16:28:21.592Z,100062.44
2022-12-14T16:30:56.829Z,100064.47
2022-12-14T16:33:25.727Z,100066.25
2022-12-14T16:36:07.713Z,100073.56
2022-12-14T16:38:56.989Z,100067.91
2022-12-14T16:41:37.220Z,100074.56
2022-12-14T16:44:08.247Z,100079.12
2022-12-14T16:46:36.886Z,100081.63
2022-12-14T16:49:44.518Z,100080.16
2022-12-14T16:52:15.741Z,100086.81
2022-12-14T16:54:43.999Z,100085.94
2022-12-14T16:57:23.453Z,100089.13
2022-12-14T17:00:01.457Z,100089.47
2022-12-14T17:02:36.290Z,100103.94
2022-12-14T17:05:17.933Z,100109.88
2022-12-14T17:07:45.989Z,100100.34
2022-12-14T17:10:20.183Z,100103.53
2022-12-14T17:12:49.407Z,100109.03
2022-12-14T17:15:19.895Z,100118.97
2022-12-14T17:17:51.766Z,100119.91
2022-12-14T17:20:29.498Z,100116.31
2022-12-14T17:23:00.492Z,100126.09
2022-12-14T17:25:30.264Z,100126.16
2022-12-14T17:27:58.979Z,100128.03
2022-12-14T17:30:27.582Z,100127.97
2022-12-14T17:32:56.029Z,100136.03
2022-12-14T17:35:26.229Z,100142.91
2022-12-14T17:37:54.153Z,100136.97
2022-12-14T17:40:22.517Z,100143.28
2022-12-14T17:42:53.720Z,100140.69
2022-12-14T17:45:24.865Z,100147.16
2022-12-14T17:47:53.089Z,100153.81
2022-12-14T17:50:22.353Z,100157.28
2022-12-14T17:52:53.603Z,100164.59
2022-12-14T17:55:24.703Z,100160.94
2022-12-14T17:57:52.587Z,100162.84
2022-12-14T18:00:42.362Z,100172.16
2022-12-14T18:05:58.552Z,100179.25
2022-12-14T18:08:27.144Z,100175.25
2022-12-14T18:11:01.318Z,100195.00
2022-12-14T18:13:31.738Z,100194.38
2022-12-14T18:16:00.809Z,100192.78
2022-12-14T18:18:29.851Z,100201.78
2022-12-14T18:21:01.857Z,100201.50
2022-12-14T18:23:31.064Z,100206.75
2022-12-14T18:28:46.972Z,100216.44
2022-12-14T18:31:36.801Z,100212.16
2022-12-14T18:34:05.615Z,100225.72
2022-12-14T18:36:33.508Z,100230.63
2022-12-14T18:39:01.510Z,100231.78
2022-12-14T18:41:31.404Z,100236.19
2022-12-14T18:46:49.315Z,100247.22
2022-12-14T18:49:17.405Z,100250.37
2022-12-14T18:51:45.286Z,100252.88
2022-12-14T18:54:13.499Z,100246.94
2022-12-14T18:56:42.343Z,100248.28
2022-12-14T18:59:10.161Z,100266.53
2022-12-14T19:01:38.392Z,100257.72
2022-12-14T19:04:07.814Z,100268.41
2022-12-14T19:06:44.876Z,100267.37
2022-12-14T19:09:16.953Z,100265.72
2022-12-14T19:11:45.450Z,100283.16
2022-12-14T19:14:13.664Z,100283.47
2022-12-14T19:16:41.488Z,100290.09
2022-12-14T19:19:09.653Z,100280.94
2022-12-14T19:21:38.081Z,100293.97
2022-12-14T19:24:08.796Z,100291.44
2022-12-14T19:26:39.487Z,100300.12
2022-12-14T19:29:07.387Z,100300.44
2022-12-14T19:31:35.219Z,100296.69
2022-12-14T19:34:03.586Z,100298.66
2022-12-14T19:36:31.545Z,100308.91
2022-12-14T19:38:59.600Z,100319.13
2022-12-14T19:41:28.186Z,100325.44
2022-12-14T19:43:57.842Z,100322.97
2022-12-14T19:46:28.941Z,100322.41
2022-12-14T19:48:59.454Z,100321.53
2022-12-14T19:51:27.472Z,100345.31
2022-12-14T19:53:55.867Z,100343.03
2022-12-14T19:56:24.757Z,100352.25
2022-12-14T19:59:01.105Z,100356.19
2022-12-14T20:01:39.714Z,100354.06
2022-12-14T20:04:11.920Z,100355.81
2022-12-14T20:06:40.121Z,100363.34
2022-12-14T20:09:08.622Z,100359.37
2022-12-14T20:11:41.187Z,100367.25
2022-12-14T20:14:10.417Z,100376.44
2022-12-14T20:16:39.297Z,100377.34
2022-12-14T20:19:07.622Z,100381.75
2022-12-14T20:21:35.595Z,100380.81
2022-12-14T20:24:04.241Z,100388.88
2022-12-14T20:26:32.654Z,100388.53
2022-12-14T20:29:06.206Z,100383.91
2022-12-14T20:31:36.131Z,100386.81
2022-12-14T20:34:07.584Z,100392.25
2022-12-14T20:36:38.852Z,100391.97
2022-12-14T20:39:10.321Z,100402.19
2022-12-14T20:41:38.605Z,100405.44
2022-12-14T20:44:14.064Z,100410.44
2022-12-14T20:46:45.206Z,100405.25
2022-12-14T20:49:19.352Z,100407.81
2022-12-14T20:51:48.760Z,100416.25
2022-12-14T20:54:19.928Z,100422.19
2022-12-14T20:56:49.679Z,100425.53
2022-12-14T20:59:17.910Z,100429.09
2022-12-14T21:01:51.892Z,100429.97
2022-12-14T21:04:22.621Z,100435.22
2022-12-14T21:06:50.690Z,100444.91
2022-12-14T21:09:18.572Z,100450.87
2022-12-14T21:12:07.700Z,100454.44
2022-12-14T21:14:45.019Z,100467.56
2022-12-14T21:17:14.961Z,100454.19
2022-12-14T21:19:45.990Z,100462.75
2022-12-14T21:22:20.066Z,100470.16
2022-12-14T21:25:05.675Z,100464.59
2022-12-14T21:27:38.673Z,100464.97
2022-12-14T21:30:10.340Z,100466.50
2022-12-14T21:32:38.892Z,100477.50
2022-12-14T21:35:07.773Z,100480.38
2022-12-14T21:37:39.056Z,100480.31
2022-12-14T21:40:08.686Z,100480.06
2022-12-14T21:42:36.431Z,100482.25
2022-12-14T21:45:05.206Z,100485.66
2022-12-14T21:47:34.238Z,100487.00
2022-12-14T21:50:02.158Z,100488.19
2022-12-14T21:52:30.611Z,100482.88
2022-12-14T21:55:00.113Z,100488.25
2022-12-14T21:57:49.695Z,100489.97
2022-12-14T22:00:19.006Z,100492.00
2022-12-14T22:02:47.414Z,100490.00
2022-12-14T22:05:15.587Z,100496.09
2022-12-14T22:07:43.278Z,100504.87
2022-12-14T22:10:11.546Z,100507.69
2022-12-14T22:12:40.083Z,100502.69
2022-12-14T22:15:08.610Z,100513.31
2022-12-14T22:17:36.773Z,100515.78
2022-12-14T22:20:05.435Z,100518.00
2022-12-14T22:22:33.936Z,100520.34
2022-12-14T22:25:02.268Z,100532.00
2022-12-14T22:27:30.741Z,100514.03
2022-12-14T22:29:58.621Z,100529.59
2022-12-14T22:32:27.262Z,100520.97
2022-12-14T22:34:58.201Z,100528.66
2022-12-14T22:37:26.467Z,100537.16
2022-12-14T22:39:54.258Z,100544.69
2022-12-14T22:42:22.459Z,100547.03
2022-12-14T22:44:50.708Z,100534.09
2022-12-14T22:47:18.916Z,100548.69
2022-12-14T22:49:47.407Z,100552.06
2022-12-14T22:52:18.630Z,100547.84
2022-12-14T22:54:51.706Z,100554.66
2022-12-14T22:57:21.459Z,100545.06
2022-12-14T22:59:56.636Z,100558.38
2022-12-14T23:02:25.126Z,100558.22
2022-12-14T23:04:53.081Z,100563.16
2022-12-14T23:07:21.041Z,100563.91
2022-12-14T23:10:10.628Z,100564.59
2022-12-14T23:12:56.972Z,100570.13
2022-12-14T23:15:44.000Z,100577.81
2022-12-14T23:18:30.394Z,100569.00
2022-12-14T23:21:16.981Z,100582.66
2022-12-14T23:24:05.124Z,100585.94
2022-12-14T23:26:52.666Z,100585.66
2022-12-14T23:29:39.033Z,100596.81
2022-12-14T23:32:25.440Z,100589.78
2022-12-14T23:35:14.420Z,100599.16
2022-12-14T23:38:01.088Z,100606.94
2022-12-14T23:40:48.039Z,100611.19
2022-12-14T23:43:37.376Z,100611.22
2022-12-14T23:46:25.462Z,100613.03
2022-12-14T23:49:16.023Z,100613.03
2022-12-14T23:52:02.752Z,100610.44
2022-12-14T23:54:49.573Z,100615.59
2022-12-14T23:57:36.773Z,100618.19
